createdAt,value
2019-03-08T00:22:32.654Z,79.10
2019-03-08T00:25:01.107Z,78.90
2019-03-08T00:27:29.543Z,79.10
2019-03-08T00:29:58.344Z,78.90
2019-03-08T00:32:26.792Z,79.20
2019-03-08T00:34:55.308Z,79.10
2019-03-08T00:37:23.722Z,78.90
2019-03-08T00:39:52.164Z,79.10
2019-03-08T00:42:20.951Z,79.10
2019-03-08T00:44:49.395Z,79.20
2019-03-08T00:47:17.819Z,79.10
2019-03-08T00:49:46.282Z,78.30
2019-03-08T00:52:14.715Z,78.40
2019-03-08T00:54:43.441Z,78.40
2019-03-08T00:57:11.882Z,78.30
2019-03-08T00:59:40.705Z,78.40
2019-03-08T01:02:09.499Z,78.40
2019-03-08T01:04:37.956Z,78.60
2019-03-08T01:07:06.472Z,78.80
2019-03-08T01:09:34.955Z,79.30
2019-03-08T01:12:03.427Z,79.10
2019-03-08T01:14:32.407Z,78.80
2019-03-08T01:17:00.910Z,78.60
2019-03-08T01:19:29.410Z,78.50
2019-03-08T01:21:57.867Z,78.50
2019-03-08T01:24:26.471Z,78.40
2019-03-08T01:26:54.936Z,78.70
2019-03-08T01:29:23.431Z,78.60
2019-03-08T01:31:53.412Z,78.60
2019-03-08T01:34:22.010Z,78.50
2019-03-08T01:36:50.878Z,78.40
2019-03-08T01:39:19.326Z,78.40
2019-03-08T01:41:47.775Z,78.40
2019-03-08T01:44:16.223Z,78.20
2019-03-08T01:46:44.670Z,78.40
2019-03-08T01:49:13.110Z,78.40
2019-03-08T01:51:41.894Z,78.30
2019-03-08T01:54:10.320Z,78.20
2019-03-08T01:56:38.802Z,78.30
2019-03-08T01:59:07.323Z,78.40
2019-03-08T02:01:35.800Z,78.40
2019-03-08T02:04:04.250Z,78.10
2019-03-08T02:06:32.671Z,78.00
2019-03-08T02:09:01.099Z,78.00
2019-03-08T02:11:29.542Z,79.60
2019-03-08T02:13:57.986Z,81.70
2019-03-08T02:16:26.440Z,83.60
2019-03-08T02:18:54.881Z,86.90
2019-03-08T02:21:23.325Z,87.70
2019-03-08T02:23:51.831Z,89.40
2019-03-08T02:26:20.261Z,90.10
2019-03-08T02:28:48.688Z,89.80
2019-03-08T02:31:17.130Z,90.40
2019-03-08T02:33:45.574Z,90.40
2019-03-08T02:36:14.280Z,90.30
2019-03-08T02:38:43.061Z,90.40
2019-03-08T02:41:11.848Z,90.20
2019-03-08T02:43:40.292Z,90.50
2019-03-08T02:46:08.740Z,90.90
2019-03-08T02:48:37.187Z,91.10
2019-03-08T02:51:05.609Z,90.70
2019-03-08T02:53:34.145Z,90.50
2019-03-08T02:56:02.573Z,90.50
2019-03-08T02:58:31.018Z,90.70
2019-03-08T03:00:59.423Z,90.40
2019-03-08T03:03:28.381Z,90.70
2019-03-08T03:05:56.801Z,90.90
2019-03-08T03:08:25.269Z,91.40
2019-03-08T03:10:53.684Z,91.00
2019-03-08T03:13:22.127Z,91.70
2019-03-08T03:15:50.556Z,92.10
2019-03-08T03:18:19.465Z,92.40
2019-03-08T03:20:48.253Z,92.80
2019-03-08T03:23:17.030Z,93.00
2019-03-08T03:25:45.933Z,93.10
2019-03-08T03:28:14.712Z,92.60
2019-03-08T03:30:43.133Z,92.30
2019-03-08T03:33:11.962Z,92.40
2019-03-08T03:35:40.388Z,91.90
2019-03-08T03:38:09.132Z,91.80
2019-03-08T03:40:37.558Z,91.50
2019-03-08T03:43:06.297Z,90.90
2019-03-08T03:45:35.081Z,91.00
2019-03-08T03:48:04.260Z,90.80
2019-03-08T03:50:32.694Z,91.00
2019-03-08T03:53:01.156Z,91.20
2019-03-08T03:55:29.589Z,91.30
2019-03-08T03:57:58.038Z,91.50
2019-03-08T04:00:26.528Z,91.10
2019-03-08T04:02:55.800Z,91.20
2019-03-08T04:05:24.561Z,91.30
2019-03-08T04:07:53.274Z,91.60
2019-03-08T04:10:21.721Z,91.30
2019-03-08T04:12:50.136Z,91.50
2019-03-08T04:15:22.324Z,91.60
2019-03-08T04:17:50.749Z,90.90
2019-03-08T04:20:20.666Z,91.10
2019-03-08T04:22:49.116Z,90.70
2019-03-08T04:25:17.624Z,90.90
2019-03-08T04:27:46.062Z,90.70
2019-03-08T04:30:21.327Z,90.20
2019-03-08T04:32:49.744Z,89.90
2019-03-08T04:35:18.247Z,89.90
2019-03-08T04:37:46.684Z,89.40
2019-03-08T04:40:15.371Z,88.60
2019-03-08T04:42:43.884Z,88.70
2019-03-08T04:45:14.642Z,88.40
2019-03-08T04:47:43.148Z,88.40
2019-03-08T04:50:14.000Z,88.30
2019-03-08T04:52:42.441Z,88.30
2019-03-08T04:55:19.081Z,87.90
2019-03-08T04:57:47.983Z,87.60
2019-03-08T05:00:20.448Z,87.40
2019-03-08T05:02:49.492Z,87.70
2019-03-08T05:05:18.304Z,87.90
2019-03-08T05:07:47.082Z,86.90
2019-03-08T05:10:17.017Z,87.20
2019-03-08T05:12:45.718Z,86.70
2019-03-08T05:15:16.470Z,86.60
2019-03-08T05:17:44.976Z,87.00
2019-03-08T05:20:13.861Z,86.80
2019-03-08T05:22:42.349Z,86.80
2019-03-08T05:25:13.290Z,87.00
2019-03-08T05:27:41.782Z,86.50
2019-03-08T05:30:17.844Z,86.70
2019-03-08T05:32:46.258Z,86.70
2019-03-08T05:35:15.215Z,86.50
2019-03-08T05:37:43.993Z,86.60
2019-03-08T05:40:14.761Z,86.30
2019-03-08T05:42:43.520Z,86.70
2019-03-08T05:45:13.684Z,86.80
2019-03-08T05:47:42.119Z,86.80
2019-03-08T05:50:12.268Z,87.00
2019-03-08T05:52:41.432Z,86.70
2019-03-08T05:55:11.656Z,86.80
2019-03-08T05:57:40.162Z,87.00
2019-03-08T06:00:17.493Z,87.00
2019-03-08T06:02:45.909Z,86.80
2019-03-08T06:05:14.723Z,86.90
2019-03-08T06:07:43.146Z,86.90
2019-03-08T06:10:31.590Z,86.80
2019-03-08T06:13:01.657Z,86.60
2019-03-08T06:15:30.108Z,86.50
2019-03-08T06:17:59.055Z,86.70
2019-03-08T06:20:27.770Z,86.90
2019-03-08T06:22:57.392Z,86.80
2019-03-08T06:25:26.368Z,87.00
2019-03-08T06:27:55.811Z,87.00
2019-03-08T06:30:24.498Z,87.00
2019-03-08T06:32:53.385Z,86.80
2019-03-08T06:35:21.862Z,86.90
2019-03-08T06:37:56.075Z,87.00
2019-03-08T06:40:24.506Z,87.10
2019-03-08T06:42:52.958Z,87.00
2019-03-08T06:45:21.482Z,87.10
2019-03-08T06:47:49.901Z,87.10
2019-03-08T06:50:18.741Z,87.20
2019-03-08T06:52:47.170Z,87.40
2019-03-08T06:55:16.632Z,87.60
2019-03-08T06:57:46.155Z,87.00
2019-03-08T07:00:36.250Z,87.20
2019-03-08T07:06:45.434Z,85.60
2019-03-08T07:09:13.859Z,84.60
2019-03-08T07:11:42.263Z,83.60
2019-03-08T07:14:12.575Z,82.90
2019-03-08T07:16:41.223Z,82.80
2019-03-08T07:19:09.725Z,82.50
2019-03-08T07:21:42.542Z,82.20
2019-03-08T07:24:12.620Z,82.60
2019-03-08T07:26:51.868Z,81.40
2019-03-08T07:29:21.937Z,81.30
2019-03-08T07:31:58.116Z,81.10
2019-03-08T07:34:28.552Z,80.90
2019-03-08T07:37:04.366Z,80.20
2019-03-08T07:39:40.162Z,80.60
2019-03-08T07:42:18.973Z,80.10
2019-03-08T07:44:57.633Z,80.20
2019-03-08T07:47:28.044Z,79.90
2019-03-08T07:49:58.116Z,80.20
2019-03-08T07:52:28.232Z,79.90
2019-03-08T07:54:58.300Z,79.90
2019-03-08T07:57:34.268Z,80.20
2019-03-08T08:00:05.017Z,80.10
2019-03-08T08:02:37.580Z,79.70
2019-03-08T08:05:21.597Z,80.00
2019-03-08T08:07:52.353Z,80.50
2019-03-08T08:10:37.648Z,80.10
2019-03-08T08:13:07.733Z,80.70
2019-03-08T08:15:49.490Z,80.50
2019-03-08T08:18:22.252Z,80.30
2019-03-08T08:21:04.296Z,80.30
2019-03-08T08:23:37.705Z,80.50
2019-03-08T08:26:23.570Z,80.20
2019-03-08T08:28:53.731Z,80.20
2019-03-08T08:31:24.706Z,80.80
2019-03-08T08:34:07.053Z,80.10
2019-03-08T08:36:37.163Z,79.20
2019-03-08T08:39:29.093Z,78.40
2019-03-08T08:41:59.573Z,79.10
2019-03-08T08:44:45.869Z,78.40
2019-03-08T08:47:15.941Z,78.70
2019-03-08T08:49:56.169Z,78.50
2019-03-08T08:52:29.748Z,77.90
2019-03-08T08:54:59.839Z,78.00
2019-03-08T08:57:32.941Z,77.60
2019-03-08T09:00:12.816Z,76.60
2019-03-08T09:02:49.248Z,75.50
2019-03-08T09:05:32.035Z,75.70
2019-03-08T09:08:13.984Z,75.60
2019-03-08T09:10:50.333Z,76.30
2019-03-08T09:13:23.314Z,75.40
2019-03-08T09:15:59.685Z,76.60
2019-03-08T09:18:44.704Z,76.90
2019-03-08T09:21:23.699Z,74.60
2019-03-08T09:23:54.013Z,74.90
2019-03-08T09:26:33.189Z,73.80
2019-03-08T09:29:09.350Z,74.20
2019-03-08T09:31:55.636Z,74.20
2019-03-08T09:34:25.721Z,71.50
2019-03-08T09:37:08.054Z,71.90
2019-03-08T09:39:38.152Z,70.80
2019-03-08T09:42:11.225Z,70.90
2019-03-08T09:44:41.668Z,70.60
2019-03-08T09:47:28.578Z,72.10
2019-03-08T09:50:01.906Z,70.30
2019-03-08T09:52:35.169Z,69.80
2019-03-08T09:55:12.227Z,70.30
2019-03-08T09:57:54.576Z,69.70
2019-03-08T10:00:30.424Z,71.20
2019-03-08T10:03:06.540Z,71.00
2019-03-08T10:05:37.642Z,70.30
2019-03-08T10:08:07.841Z,70.50
2019-03-08T10:10:54.015Z,69.90
2019-03-08T10:13:32.182Z,70.70
2019-03-08T10:16:08.004Z,69.70
2019-03-08T10:18:42.912Z,70.80
2019-03-08T10:21:13.152Z,69.90
2019-03-08T10:23:49.721Z,70.90
2019-03-08T10:26:21.223Z,70.00
2019-03-08T10:29:03.293Z,71.10
2019-03-08T10:31:33.517Z,70.60
2019-03-08T10:34:06.081Z,72.20
2019-03-08T10:36:36.627Z,72.40
2019-03-08T10:39:12.060Z,72.60
2019-03-08T10:41:42.254Z,72.90
2019-03-08T10:44:21.364Z,73.00
2019-03-08T10:47:03.518Z,73.60
2019-03-08T10:49:54.703Z,72.90
2019-03-08T10:52:20.609Z,74.10
2019-03-08T10:55:07.687Z,73.60
2019-03-08T10:57:54.374Z,73.60
2019-03-08T11:00:24.997Z,73.60
2019-03-08T11:03:03.885Z,73.70
2019-03-08T11:05:33.949Z,73.50
2019-03-08T11:08:05.934Z,73.70
2019-03-08T11:10:52.182Z,72.80
2019-03-08T11:13:43.186Z,72.40
2019-03-08T11:16:13.768Z,72.50
2019-03-08T11:18:47.322Z,72.80
2019-03-08T11:21:20.097Z,70.50
2019-03-08T11:23:50.165Z,71.00
2019-03-08T11:26:26.308Z,70.20
2019-03-08T11:28:59.115Z,71.30
2019-03-08T11:31:47.306Z,70.60
2019-03-08T11:34:29.530Z,70.70
2019-03-08T11:37:04.222Z,71.50
2019-03-08T11:39:52.709Z,72.00
2019-03-08T11:42:22.780Z,70.50
2019-03-08T11:45:05.081Z,69.70
2019-03-08T11:47:50.120Z,68.90
2019-03-08T11:50:22.893Z,67.80
2019-03-08T11:53:08.348Z,68.50
2019-03-08T11:55:38.431Z,67.00
2019-03-08T11:58:26.104Z,67.20
2019-03-08T12:01:14.757Z,67.40
2019-03-08T12:03:49.312Z,67.10
2019-03-08T12:06:28.925Z,67.10
2019-03-08T12:09:26.591Z,67.60
2019-03-08T12:12:13.125Z,67.20
2019-03-08T12:14:43.709Z,66.20
2019-03-08T12:17:30.240Z,66.40
2019-03-08T12:20:03.044Z,66.30
2019-03-08T12:22:48.094Z,65.80
2019-03-08T12:25:18.496Z,66.00
2019-03-08T12:27:57.874Z,67.60
2019-03-08T12:30:27.937Z,66.80
2019-03-08T12:33:01.128Z,66.40
2019-03-08T12:35:38.122Z,67.40
2019-03-08T12:38:08.198Z,67.80
2019-03-08T12:40:38.766Z,68.40
2019-03-08T12:43:15.332Z,68.80
2019-03-08T12:45:53.986Z,69.60
2019-03-08T12:48:39.225Z,68.20
2019-03-08T12:51:19.975Z,72.70
2019-03-08T12:54:03.409Z,77.10
2019-03-08T12:56:44.574Z,79.70
2019-03-08T12:59:26.677Z,81.30
2019-03-08T13:01:59.479Z,83.50
2019-03-08T13:04:47.601Z,84.80
2019-03-08T13:07:18.604Z,86.20
2019-03-08T13:09:49.973Z,87.10
2019-03-08T13:12:18.410Z,88.00
2019-03-08T13:14:46.844Z,89.90
2019-03-08T13:17:15.276Z,86.40
2019-03-08T13:19:43.749Z,86.20
2019-03-08T13:22:13.056Z,86.00
2019-03-08T13:24:41.835Z,87.30
2019-03-08T13:27:10.283Z,88.20
2019-03-08T13:29:38.703Z,89.70
2019-03-08T13:32:07.167Z,88.20
2019-03-08T13:34:35.584Z,88.80
2019-03-08T13:37:04.234Z,90.30
2019-03-08T13:39:32.978Z,90.10
2019-03-08T13:42:01.401Z,88.70
2019-03-08T13:44:29.906Z,88.80
2019-03-08T13:46:58.817Z,89.50
2019-03-08T13:49:27.618Z,88.50
2019-03-08T13:51:56.422Z,87.20
2019-03-08T13:54:24.861Z,87.40
2019-03-08T13:56:53.303Z,85.70
2019-03-08T13:59:21.833Z,86.50
2019-03-08T14:01:50.331Z,83.20
2019-03-08T14:04:18.756Z,82.80
2019-03-08T14:06:47.173Z,82.50
2019-03-08T14:09:15.630Z,77.70
2019-03-08T14:11:44.137Z,76.30
2019-03-08T14:14:14.578Z,73.70
2019-03-08T14:16:42.848Z,70.00
2019-03-08T14:19:11.308Z,69.70
2019-03-08T14:21:40.854Z,68.40
2019-03-08T14:24:09.297Z,68.50
2019-03-08T14:26:37.720Z,65.70
2019-03-08T14:29:06.462Z,66.80
2019-03-08T14:31:45.353Z,66.00
2019-03-08T14:34:16.717Z,65.00
2019-03-08T14:36:44.348Z,63.10
2019-03-08T14:39:13.329Z,62.20
2019-03-08T14:41:46.048Z,61.60
2019-03-08T14:44:22.779Z,59.60
2019-03-08T14:46:57.611Z,62.30
2019-03-08T14:49:26.549Z,65.00
2019-03-08T14:51:55.051Z,66.80
2019-03-08T14:54:24.063Z,67.20
2019-03-08T14:56:52.552Z,66.90
2019-03-08T14:59:30.878Z,68.40
2019-03-08T15:01:59.604Z,69.10
2019-03-08T15:04:29.358Z,70.30
2019-03-08T15:07:01.301Z,69.90
2019-03-08T15:09:29.401Z,68.50
2019-03-08T15:11:59.570Z,64.40
2019-03-08T15:14:30.139Z,62.00
2019-03-08T15:17:08.684Z,59.90
2019-03-08T15:19:36.075Z,56.90
2019-03-08T15:22:02.933Z,57.00
2019-03-08T15:24:38.064Z,56.50
2019-03-08T15:27:04.105Z,56.80
2019-03-08T15:29:33.709Z,53.80
2019-03-08T15:32:02.164Z,50.60
2019-03-08T15:34:30.665Z,51.80
2019-03-08T15:37:03.180Z,51.90
2019-03-08T15:39:31.669Z,51.30
2019-03-08T15:42:02.343Z,49.00
2019-03-08T15:44:30.285Z,49.00
2019-03-08T15:46:59.288Z,48.20
2019-03-08T15:49:30.556Z,48.20
2019-03-08T15:52:03.588Z,48.30
2019-03-08T15:54:32.278Z,48.90
2019-03-08T15:57:03.953Z,48.60
2019-03-08T15:59:32.393Z,48.20
2019-03-08T16:02:02.175Z,46.90
2019-03-08T16:04:31.059Z,47.00
2019-03-08T16:06:59.825Z,47.00
2019-03-08T16:09:31.062Z,48.00
2019-03-08T16:11:59.528Z,50.40
2019-03-08T16:14:27.961Z,53.10
2019-03-08T16:16:56.696Z,55.20
2019-03-08T16:19:36.377Z,56.00
2019-03-08T16:22:04.820Z,55.50
2019-03-08T16:24:33.255Z,54.80
2019-03-08T16:27:02.277Z,55.40
2019-03-08T16:29:43.974Z,57.80
2019-03-08T16:32:13.824Z,59.90
2019-03-08T16:34:42.120Z,62.30
2019-03-08T16:37:14.118Z,63.80
2019-03-08T16:39:46.722Z,65.20
2019-03-08T16:42:28.591Z,66.30
2019-03-08T16:44:58.457Z,66.60
2019-03-08T16:47:30.719Z,67.70
2019-03-08T16:50:03.560Z,68.80
2019-03-08T16:52:49.926Z,69.20
2019-03-08T16:55:34.082Z,69.50
2019-03-08T16:58:22.297Z,70.60
2019-03-08T17:01:04.303Z,71.20
2019-03-08T17:03:46.486Z,71.60
2019-03-08T17:06:26.394Z,72.30
2019-03-08T17:08:55.919Z,72.60
2019-03-08T17:11:41.690Z,73.40
2019-03-08T17:14:14.588Z,74.00
2019-03-08T17:16:47.318Z,74.30
2019-03-08T17:19:25.998Z,74.60
2019-03-08T17:21:56.083Z,75.40
2019-03-08T17:24:26.152Z,75.70
2019-03-08T17:26:59.093Z,76.40
2019-03-08T17:29:35.284Z,76.60
2019-03-08T17:32:14.349Z,77.00
2019-03-08T17:34:45.682Z,77.60
2019-03-08T17:37:15.961Z,78.00
2019-03-08T17:39:51.459Z,78.10
2019-03-08T17:42:24.570Z,78.60
2019-03-08T17:45:13.133Z,78.70
2019-03-08T17:47:45.990Z,79.40
2019-03-08T17:50:18.457Z,79.70
2019-03-08T17:52:48.548Z,80.10
2019-03-08T17:55:36.614Z,80.60
2019-03-08T17:58:09.725Z,80.90
2019-03-08T18:00:48.788Z,81.20
2019-03-08T18:03:18.861Z,81.20
2019-03-08T18:06:07.110Z,81.50
2019-03-08T18:08:37.204Z,82.20
2019-03-08T18:11:13.328Z,82.40
2019-03-08T18:13:59.282Z,82.90
2019-03-08T18:16:35.342Z,83.40
2019-03-08T18:19:11.497Z,84.00
2019-03-08T18:21:41.580Z,84.30
2019-03-08T18:24:11.947Z,84.40
2019-03-08T18:26:42.031Z,84.60
2019-03-08T18:29:26.743Z,84.90
2019-03-08T18:32:04.347Z,85.00
2019-03-08T18:34:49.617Z,85.10
2019-03-08T18:37:34.922Z,85.20
2019-03-08T18:40:06.104Z,85.60
2019-03-08T18:42:41.854Z,85.80
2019-03-08T18:45:31.246Z,86.20
2019-03-08T18:48:01.443Z,86.30
2019-03-08T18:50:31.560Z,86.40
2019-03-08T18:53:01.618Z,86.40
2019-03-08T18:55:31.696Z,86.30
2019-03-08T18:58:10.893Z,86.30
2019-03-08T19:00:41.029Z,86.30
2019-03-08T19:03:27.792Z,86.30
2019-03-08T19:06:01.137Z,86.30
2019-03-08T19:08:46.429Z,86.30
2019-03-08T19:11:19.426Z,86.50
2019-03-08T19:13:49.500Z,86.70
2019-03-08T19:16:34.592Z,86.90
2019-03-08T19:19:10.433Z,86.90
2019-03-08T19:21:40.891Z,87.10
2019-03-08T19:24:10.958Z,87.10
2019-03-08T19:26:57.540Z,87.10
2019-03-08T19:29:27.642Z,87.20
2019-03-08T19:32:04.716Z,87.30
2019-03-08T19:34:37.596Z,87.30
2019-03-08T19:37:07.681Z,87.40
2019-03-08T19:39:43.605Z,87.40
2019-03-08T19:42:22.720Z,87.30
2019-03-08T19:44:59.030Z,87.30
2019-03-08T19:47:45.250Z,87.20
2019-03-08T19:50:21.273Z,87.10
2019-03-08T19:53:00.364Z,86.90
2019-03-08T19:55:33.156Z,86.60
2019-03-08T19:58:06.421Z,86.30
2019-03-08T20:00:39.886Z,86.20
2019-03-08T20:03:10.337Z,86.00
2019-03-08T20:05:43.354Z,86.00
2019-03-08T20:08:19.871Z,85.90
2019-03-08T20:10:53.037Z,86.00
2019-03-08T20:13:28.652Z,85.80
2019-03-08T20:15:58.721Z,85.50
2019-03-08T20:18:28.783Z,85.40
2019-03-08T20:21:01.528Z,85.50
2019-03-08T20:23:31.600Z,86.00
2019-03-08T20:26:01.685Z,86.20
2019-03-08T20:28:48.192Z,86.00
2019-03-08T20:31:21.760Z,85.80
2019-03-08T20:33:58.007Z,85.70
2019-03-08T20:36:34.185Z,85.40
2019-03-08T20:39:10.768Z,85.30
2019-03-08T20:41:50.329Z,84.90
2019-03-08T20:44:23.249Z,84.80
2019-03-08T20:46:56.139Z,84.50
2019-03-08T20:49:24.567Z,84.40
2019-03-08T20:51:53.442Z,84.30
2019-03-08T20:54:22.326Z,84.20
2019-03-08T20:56:51.232Z,84.10
2019-03-08T20:59:19.668Z,84.00
2019-03-08T21:01:48.481Z,83.80
2019-03-08T21:04:16.927Z,83.80
2019-03-08T21:06:45.393Z,83.70
2019-03-08T21:09:14.518Z,83.70
2019-03-08T21:11:43.064Z,83.50
2019-03-08T21:14:11.557Z,83.40
2019-03-08T21:16:40.365Z,83.40
2019-03-08T21:19:09.139Z,83.40
2019-03-08T21:21:37.666Z,83.50
2019-03-08T21:24:06.824Z,83.50
2019-03-08T21:26:35.309Z,83.20
2019-03-08T21:29:04.138Z,83.00
2019-03-08T21:31:32.669Z,82.80
2019-03-08T21:34:01.113Z,82.80
2019-03-08T21:36:30.132Z,82.60
2019-03-08T21:39:00.300Z,82.50
2019-03-08T21:41:28.746Z,82.40
2019-03-08T21:43:57.292Z,82.40
2019-03-08T21:46:26.133Z,82.40
2019-03-08T21:48:58.127Z,82.30
2019-03-08T21:51:26.658Z,82.20
2019-03-08T21:53:55.113Z,82.10
2019-03-08T21:56:23.542Z,81.90
2019-03-08T21:58:52.332Z,81.70
2019-03-08T22:01:21.253Z,81.70
2019-03-08T22:03:52.280Z,81.70
2019-03-08T22:06:21.125Z,81.60
2019-03-08T22:09:09.433Z,81.70
2019-03-08T22:11:41.524Z,82.00
2019-03-08T22:14:10.093Z,82.20
2019-03-08T22:16:38.523Z,82.30
2019-03-08T22:19:06.949Z,82.40
2019-03-08T22:21:36.415Z,82.90
2019-03-08T22:24:13.066Z,83.00
2019-03-08T22:26:38.022Z,83.10
2019-03-08T22:29:06.440Z,83.00
2019-03-08T22:31:34.946Z,83.00
2019-03-08T22:34:04.272Z,82.90
2019-03-08T22:36:32.685Z,82.70
2019-03-08T22:39:01.560Z,82.50
2019-03-08T22:41:30.154Z,82.50
2019-03-08T22:43:59.205Z,82.40
2019-03-08T22:46:27.676Z,82.50
2019-03-08T22:48:56.749Z,82.40
2019-03-08T22:51:25.177Z,82.30
2019-03-08T22:53:54.493Z,82.50
2019-03-08T22:56:22.906Z,82.60
2019-03-08T22:58:51.362Z,82.60
2019-03-08T23:01:22.081Z,82.70
2019-03-08T23:03:50.551Z,82.80
2019-03-08T23:06:18.976Z,82.90
2019-03-08T23:08:47.372Z,82.90
2019-03-08T23:11:15.839Z,82.90
2019-03-08T23:13:44.225Z,82.90
2019-03-08T23:16:13.037Z,83.00
2019-03-08T23:18:42.059Z,83.10
2019-03-08T23:21:10.521Z,82.90
2019-03-08T23:23:38.927Z,82.80
2019-03-08T23:26:07.344Z,82.80
2019-03-08T23:28:37.378Z,82.60
2019-03-08T23:31:09.294Z,82.50
2019-03-08T23:33:37.680Z,82.40
2019-03-08T23:36:06.080Z,82.20
2019-03-08T23:38:34.495Z,82.30
2019-03-08T23:41:02.890Z,82.30
2019-03-08T23:43:31.345Z,82.20
2019-03-08T23:45:59.745Z,81.40
2019-03-08T23:48:28.136Z,81.00
2019-03-08T23:50:56.565Z,80.90
2019-03-08T23:53:25.138Z,80.20
2019-03-08T23:55:53.549Z,79.70
2019-03-08T23:58:22.456Z,78.90
